PWSweather.com
Personal Weather Stations
Station Observations

SkegnessGB

Lat: 53.147585, Lon: 0.345774

Elevation: 18

Station Type: Fine Offset WH3080

http://www.skegnessweather.info/

High Low Average
Temperature 55.0°F12.8°C 42.4°F5.8°C 48.7°F9.3°C
Dew Point 49.6°F9.8°C 41.1°F5.1°C 45.6°F7.6°C
Winds 18.2 mph 29.3 kmh 4.5 mph 7.2 kmh 10.0 mph S16.1 kmh S
Wind Gusts 21.7 mph34.9 kmh 5.9 mph9.5 kmh 12.0 mph19.3 kmh
Humidity 99% 78% 89%
Pressure 29.95 in1014.2 mb 29.70 in1005.8 mb -
Precipitation 0.01 in0.3 mm - -
Hour Temp Dew Point Humidity Winds Wind Gusts Pressure Precip Precip Rate Daily Precip Total
12:00 AM 48.6°F9.2°C 48.0°F8.9°C 98% 8.0 mph SE12.9 kmh SE 7.6 mph12.2 kmh 29.70 in1005.8 mb 0.00 in0.0 mm 0.00 in0.0 mm 0.00 in0.0 mm
12:10 AM 48.6°F9.2°C 48.0°F8.9°C 98% 8.3 mph S13.4 kmh S 9.1 mph14.6 kmh 29.70 in1005.8 mb 0.00 in0.0 mm 0.00 in0.0 mm 0.00 in0.0 mm
12:20 AM 48.4°F9.1°C 47.8°F8.8°C 98% 6.8 mph S10.9 kmh S 6.6 mph10.6 kmh 29.70 in1005.8 mb 0.00 in0.0 mm 0.00 in0.0 mm 0.00 in0.0 mm
12:30 AM 48.4°F9.1°C 47.8°F8.8°C 98% 6.0 mph SSW9.7 kmh SSW 6.6 mph10.6 kmh 29.71 in1006.1 mb 0.00 in0.0 mm 0.00 in0.0 mm 0.00 in0.0 mm
12:40 AM 48.4°F9.1°C 47.8°F8.8°C 98% 7.0 mph SW11.3 kmh SW 8.4 mph13.5 kmh 29.71 in1006.1 mb 0.00 in0.0 mm 0.00 in0.0 mm 0.00 in0.0 mm
12:50 AM 48.4°F9.1°C 47.8°F8.8°C 98% 6.5 mph SW10.5 kmh SW 11.8 mph19.0 kmh 29.71 in1006.1 mb 0.00 in0.0 mm 0.00 in0.0 mm 0.00 in0.0 mm
01:00 AM 48.2°F9.0°C 47.4°F8.6°C 97% 7.0 mph SSW11.3 kmh SSW 11.8 mph19.0 kmh 29.71 in1006.1 mb 0.00 in0.0 mm 0.00 in0.0 mm 0.00 in0.0 mm
01:10 AM 48.2°F9.0°C 47.4°F8.6°C 97% 6.3 mph SW10.1 kmh SW 10.1 mph16.3 kmh 29.72 in1006.4 mb 0.00 in0.0 mm 0.00 in0.0 mm 0.00 in0.0 mm
01:20 AM 48.2°F9.0°C 47.4°F8.6°C 97% 6.4 mph S10.3 kmh S 7.6 mph12.2 kmh 29.73 in1006.8 mb 0.00 in0.0 mm 0.00 in0.0 mm 0.00 in0.0 mm
01:30 AM 48.2°F9.0°C 47.4°F8.6°C 97% 7.7 mph SSW12.4 kmh SSW 10.8 mph17.4 kmh 29.73 in1006.8 mb 0.00 in0.0 mm 0.00 in0.0 mm 0.00 in0.0 mm
01:40 AM 47.8°F8.8°C 46.8°F8.2°C 96% 7.0 mph S11.3 kmh S 9.1 mph14.6 kmh 29.74 in1007.1 mb 0.00 in0.0 mm 0.00 in0.0 mm 0.00 in0.0 mm
01:50 AM 47.7°F8.7°C 46.6°F8.1°C 96% 6.6 mph S10.6 kmh S 8.4 mph13.5 kmh 29.74 in1007.1 mb 0.00 in0.0 mm 0.00 in0.0 mm 0.00 in0.0 mm
02:00 AM 47.3°F8.5°C 46.2°F7.9°C 96% 7.0 mph S11.3 kmh S 8.4 mph13.5 kmh 29.75 in1007.5 mb 0.00 in0.0 mm 0.00 in0.0 mm 0.00 in0.0 mm
02:10 AM 47.1°F8.4°C 46.0°F7.8°C 96% 7.2 mph SSW11.6 kmh SSW 7.6 mph12.2 kmh 29.75 in1007.5 mb 0.00 in0.0 mm 0.00 in0.0 mm 0.00 in0.0 mm
02:20 AM 47.3°F8.5°C 46.2°F7.9°C 96% 8.7 mph SSW14.0 kmh SSW 11.8 mph19.0 kmh 29.76 in1007.8 mb 0.00 in0.0 mm 0.00 in0.0 mm 0.00 in0.0 mm
02:30 AM 47.3°F8.5°C 46.2°F7.9°C 96% 10.0 mph SSW16.1 kmh SSW 11.8 mph19.0 kmh 29.77 in1008.1 mb 0.00 in0.0 mm 0.00 in0.0 mm 0.00 in0.0 mm
02:40 AM 47.3°F8.5°C 45.9°F7.7°C 95% 11.4 mph WSW18.3 kmh WSW 16.0 mph25.7 kmh 29.78 in1008.5 mb 0.00 in0.0 mm 0.00 in0.0 mm 0.00 in0.0 mm
02:50 AM 46.9°F8.3°C 45.3°F7.4°C 94% 9.8 mph SSW15.8 kmh SSW 11.8 mph19.0 kmh 29.78 in1008.5 mb 0.00 in0.0 mm 0.00 in0.0 mm 0.00 in0.0 mm
03:00 AM 46.8°F8.2°C 44.6°F7.0°C 92% 10.6 mph S17.1 kmh S 15.0 mph24.1 kmh 29.79 in1008.8 mb 0.00 in0.0 mm 0.00 in0.0 mm 0.00 in0.0 mm
03:10 AM 46.8°F8.2°C 44.3°F6.8°C 91% 11.0 mph SE17.7 kmh SE 10.1 mph16.3 kmh 29.80 in1009.1 mb 0.00 in0.0 mm 0.00 in0.0 mm 0.00 in0.0 mm
03:20 AM 46.4°F8.0°C 43.6°F6.4°C 90% 6.5 mph S10.5 kmh S 10.1 mph16.3 kmh 29.80 in1009.1 mb 0.00 in0.0 mm 0.00 in0.0 mm 0.00 in0.0 mm
03:30 AM 46.2°F7.9°C 43.2°F6.2°C 89% 7.3 mph SW11.7 kmh SW 7.6 mph12.2 kmh 29.82 in1009.8 mb 0.00 in0.0 mm 0.00 in0.0 mm 0.00 in0.0 mm
03:40 AM 46.0°F7.8°C 42.7°F5.9°C 88% 7.6 mph WSW12.2 kmh WSW 11.8 mph19.0 kmh 29.83 in1010.2 mb 0.00 in0.0 mm 0.00 in0.0 mm 0.00 in0.0 mm
03:50 AM 45.3°F7.4°C 41.7°F5.4°C 87% 5.9 mph WSW9.5 kmh WSW 7.6 mph12.2 kmh 29.84 in1010.5 mb 0.00 in0.0 mm 0.00 in0.0 mm 0.00 in0.0 mm
04:00 AM 44.8°F7.1°C 41.1°F5.1°C 87% 6.0 mph SSW9.7 kmh SSW 5.9 mph9.5 kmh 29.84 in1010.5 mb 0.00 in0.0 mm 0.00 in0.0 mm 0.00 in0.0 mm
04:10 AM 44.2°F6.8°C 42.3°F5.7°C 93% 5.2 mph S8.4 kmh S 7.6 mph12.2 kmh 29.84 in1010.5 mb 0.00 in0.0 mm 0.00 in0.0 mm 0.00 in0.0 mm
04:20 AM 43.5°F6.4°C 41.9°F5.5°C 94% 6.2 mph S10.0 kmh S 7.6 mph12.2 kmh 29.85 in1010.8 mb 0.00 in0.0 mm 0.00 in0.0 mm 0.00 in0.0 mm
04:30 AM 43.0°F6.1°C 41.4°F5.2°C 94% 5.7 mph WSW9.2 kmh WSW 7.6 mph12.2 kmh 29.85 in1010.8 mb 0.00 in0.0 mm 0.00 in0.0 mm 0.00 in0.0 mm
04:40 AM 42.6°F5.9°C 41.3°F5.2°C 95% 6.1 mph SW9.8 kmh SW 7.6 mph12.2 kmh 29.86 in1011.2 mb 0.00 in0.0 mm 0.00 in0.0 mm 0.00 in0.0 mm
04:50 AM 42.4°F5.8°C 41.1°F5.1°C 95% 6.0 mph SW9.7 kmh SW 7.6 mph12.2 kmh 29.87 in1011.5 mb 0.00 in0.0 mm 0.00 in0.0 mm 0.00 in0.0 mm
05:00 AM 42.4°F5.8°C 41.4°F5.2°C 96% 5.8 mph S9.3 kmh S 6.6 mph10.6 kmh 29.87 in1011.5 mb 0.00 in0.0 mm 0.00 in0.0 mm 0.00 in0.0 mm
05:10 AM 42.6°F5.9°C 41.8°F5.4°C 97% 4.8 mph SSW7.7 kmh SSW 6.6 mph10.6 kmh 29.87 in1011.5 mb 0.00 in0.0 mm 0.00 in0.0 mm 0.00 in0.0 mm
05:20 AM 42.6°F5.9°C 41.8°F5.4°C 97% 6.0 mph S9.7 kmh S 7.6 mph12.2 kmh 29.88 in1011.9 mb 0.00 in0.0 mm 0.00 in0.0 mm 0.00 in0.0 mm
05:30 AM 42.6°F5.9°C 41.8°F5.4°C 97% 6.5 mph S10.5 kmh S 9.1 mph14.6 kmh 29.88 in1011.9 mb 0.00 in0.0 mm 0.00 in0.0 mm 0.00 in0.0 mm
05:40 AM 42.6°F5.9°C 42.1°F5.6°C 98% 8.4 mph SSW13.5 kmh SSW 10.1 mph16.3 kmh 29.88 in1011.9 mb 0.00 in0.0 mm 0.00 in0.0 mm 0.00 in0.0 mm
05:50 AM 42.8°F6.0°C 42.3°F5.7°C 98% 7.3 mph SW11.7 kmh SW 7.6 mph12.2 kmh 29.88 in1011.9 mb 0.00 in0.0 mm 0.00 in0.0 mm 0.00 in0.0 mm
06:00 AM 42.8°F6.0°C 42.3°F5.7°C 98% 7.9 mph SSE12.7 kmh SSE 7.6 mph12.2 kmh 29.88 in1011.9 mb 0.00 in0.0 mm 0.00 in0.0 mm 0.00 in0.0 mm
06:10 AM 43.0°F6.1°C 42.5°F5.8°C 98% 7.4 mph S11.9 kmh S 8.4 mph13.5 kmh 29.88 in1011.9 mb 0.00 in0.0 mm 0.00 in0.0 mm 0.00 in0.0 mm
06:20 AM 43.2°F6.2°C 42.6°F5.9°C 98% 8.6 mph S13.8 kmh S 9.1 mph14.6 kmh 29.89 in1012.2 mb 0.00 in0.0 mm 0.00 in0.0 mm 0.00 in0.0 mm
06:30 AM 43.7°F6.5°C 43.4°F6.3°C 99% 7.9 mph S12.7 kmh S 8.4 mph13.5 kmh 29.89 in1012.2 mb 0.00 in0.0 mm 0.00 in0.0 mm 0.00 in0.0 mm
06:40 AM 44.2°F6.8°C 44.0°F6.7°C 99% 8.4 mph S13.5 kmh S 10.1 mph16.3 kmh 29.89 in1012.2 mb 0.00 in0.0 mm 0.00 in0.0 mm 0.00 in0.0 mm
06:50 AM 44.8°F7.1°C 42.9°F6.1°C 93% 7.5 mph S12.1 kmh S 8.4 mph13.5 kmh 29.89 in1012.2 mb 0.00 in0.0 mm 0.00 in0.0 mm 0.00 in0.0 mm
07:00 AM 44.8°F7.1°C 42.6°F5.9°C 92% 8.9 mph S14.3 kmh S 10.1 mph16.3 kmh 29.90 in1012.5 mb 0.00 in0.0 mm 0.00 in0.0 mm 0.00 in0.0 mm
07:10 AM 44.6°F7.0°C 42.1°F5.6°C 91% 10.8 mph ESE17.4 kmh ESE 10.8 mph17.4 kmh 29.90 in1012.5 mb 0.00 in0.0 mm 0.00 in0.0 mm 0.00 in0.0 mm
07:20 AM 45.0°F7.2°C 42.2°F5.7°C 90% 12.4 mph S20.0 kmh S 15.0 mph24.1 kmh 29.90 in1012.5 mb 0.00 in0.0 mm 0.00 in0.0 mm 0.00 in0.0 mm
07:30 AM 45.7°F7.6°C 42.6°F5.9°C 89% 15.4 mph S24.8 kmh S 16.7 mph26.9 kmh 29.91 in1012.9 mb 0.00 in0.0 mm 0.00 in0.0 mm 0.00 in0.0 mm
07:40 AM 45.9°F7.7°C 42.8°F6.0°C 89% 15.0 mph SSE24.1 kmh SSE 15.0 mph24.1 kmh 29.91 in1012.9 mb 0.00 in0.0 mm 0.00 in0.0 mm 0.00 in0.0 mm
07:50 AM 46.2°F7.9°C 43.2°F6.2°C 89% 15.5 mph SSE24.9 kmh SSE 15.0 mph24.1 kmh 29.92 in1013.2 mb 0.00 in0.0 mm 0.00 in0.0 mm 0.00 in0.0 mm
08:00 AM 46.6°F8.1°C 43.5°F6.4°C 89% 14.8 mph S23.8 kmh S 17.5 mph28.2 kmh 29.91 in1012.9 mb 0.00 in0.0 mm 0.00 in0.0 mm 0.00 in0.0 mm
08:10 AM 46.9°F8.3°C 43.6°F6.4°C 88% 15.9 mph S25.6 kmh S 17.5 mph28.2 kmh 29.92 in1013.2 mb 0.00 in0.0 mm 0.00 in0.0 mm 0.00 in0.0 mm
08:20 AM 47.1°F8.4°C 43.7°F6.5°C 88% 14.6 mph S23.5 kmh S 15.0 mph24.1 kmh 29.92 in1013.2 mb 0.00 in0.0 mm 0.00 in0.0 mm 0.00 in0.0 mm
08:30 AM 47.5°F8.6°C 44.4°F6.9°C 89% 14.0 mph S22.5 kmh S 15.0 mph24.1 kmh 29.92 in1013.2 mb 0.00 in0.0 mm 0.00 in0.0 mm 0.00 in0.0 mm
08:40 AM 47.8°F8.8°C 45.0°F7.2°C 90% 11.8 mph SW19.0 kmh SW 12.5 mph20.1 kmh 29.92 in1013.2 mb 0.00 in0.0 mm 0.00 in0.0 mm 0.00 in0.0 mm
08:50 AM 48.4°F9.1°C 45.3°F7.4°C 89% 16.3 mph S26.2 kmh S 16.7 mph26.9 kmh 29.93 in1013.5 mb 0.00 in0.0 mm 0.00 in0.0 mm 0.00 in0.0 mm
09:00 AM 48.2°F9.0°C 44.5°F6.9°C 87% 16.0 mph SE25.7 kmh SE 18.5 mph29.8 kmh 29.93 in1013.5 mb 0.00 in0.0 mm 0.00 in0.0 mm 0.00 in0.0 mm
09:10 AM 47.5°F8.6°C 44.7°F7.1°C 90% 16.9 mph ENE27.2 kmh ENE 17.5 mph28.2 kmh 29.93 in1013.5 mb 0.01 in0.3 mm 0.06 in1.5 mm 0.01 in0.3 mm
09:20 AM 47.3°F8.5°C 45.1°F7.3°C 92% 14.7 mph SSW23.7 kmh SSW 14.3 mph23.0 kmh 29.93 in1013.5 mb 0.01 in0.3 mm 0.00 in0.0 mm 0.01 in0.3 mm
09:30 AM 48.0°F8.9°C 46.1°F7.8°C 93% 15.6 mph S25.1 kmh S 15.0 mph24.1 kmh 29.93 in1013.5 mb 0.01 in0.3 mm 0.00 in0.0 mm 0.01 in0.3 mm
09:40 AM 48.2°F9.0°C 46.0°F7.8°C 92% 15.6 mph SSE25.1 kmh SSE 15.0 mph24.1 kmh 29.93 in1013.5 mb 0.01 in0.3 mm 0.00 in0.0 mm 0.01 in0.3 mm
09:50 AM 48.4°F9.1°C 46.2°F7.9°C 92% 16.5 mph S26.6 kmh S 21.7 mph34.9 kmh 29.93 in1013.5 mb 0.01 in0.3 mm 0.00 in0.0 mm 0.01 in0.3 mm
10:00 AM 48.6°F9.2°C 46.1°F7.8°C 91% 17.7 mph SSE28.5 kmh SSE 18.5 mph29.8 kmh 29.94 in1013.9 mb 0.01 in0.3 mm 0.00 in0.0 mm 0.01 in0.3 mm
10:10 AM 48.9°F9.4°C 46.7°F8.2°C 92% 16.6 mph S26.7 kmh S 16.7 mph26.9 kmh 29.94 in1013.9 mb 0.00 in0.0 mm 0.00 in0.0 mm 0.01 in0.3 mm
10:20 AM 49.5°F9.7°C 47.2°F8.4°C 92% 15.5 mph SE24.9 kmh SE 17.5 mph28.2 kmh 29.94 in1013.9 mb 0.00 in0.0 mm 0.00 in0.0 mm 0.01 in0.3 mm
10:30 AM 50.2°F10.1°C 47.4°F8.6°C 90% 18.2 mph S29.3 kmh S 19.2 mph30.9 kmh 29.94 in1013.9 mb 0.00 in0.0 mm 0.00 in0.0 mm 0.01 in0.3 mm
10:40 AM 50.7°F10.4°C 47.9°F8.8°C 90% 17.7 mph S28.5 kmh S 19.2 mph30.9 kmh 29.94 in1013.9 mb 0.00 in0.0 mm 0.00 in0.0 mm 0.01 in0.3 mm
10:50 AM 50.7°F10.4°C 47.6°F8.7°C 89% 17.9 mph S28.8 kmh S 19.2 mph30.9 kmh 29.94 in1013.9 mb 0.00 in0.0 mm 0.00 in0.0 mm 0.01 in0.3 mm
11:00 AM 50.7°F10.4°C 47.3°F8.5°C 88% 15.2 mph SE24.5 kmh SE 14.3 mph23.0 kmh 29.95 in1014.2 mb 0.00 in0.0 mm 0.00 in0.0 mm 0.01 in0.3 mm
11:10 AM 51.8°F11.0°C 48.4°F9.1°C 88% 13.8 mph S22.2 kmh S 13.3 mph21.4 kmh 29.94 in1013.9 mb 0.00 in0.0 mm 0.00 in0.0 mm 0.01 in0.3 mm
11:20 AM 51.4°F10.8°C 47.4°F8.6°C 86% 16.6 mph SSE26.7 kmh SSE 17.5 mph28.2 kmh 29.95 in1014.2 mb 0.00 in0.0 mm 0.00 in0.0 mm 0.01 in0.3 mm
11:30 AM 51.4°F10.8°C 47.7°F8.7°C 87% 13.9 mph S22.4 kmh S 14.3 mph23.0 kmh 29.95 in1014.2 mb 0.00 in0.0 mm 0.00 in0.0 mm 0.01 in0.3 mm
11:40 AM 52.3°F11.3°C 48.6°F9.2°C 87% 14.2 mph SE22.9 kmh SE 14.3 mph23.0 kmh 29.95 in1014.2 mb 0.00 in0.0 mm 0.00 in0.0 mm 0.01 in0.3 mm
11:50 AM 52.5°F11.4°C 48.8°F9.3°C 87% 14.5 mph SSE23.3 kmh SSE 15.0 mph24.1 kmh 29.94 in1013.9 mb 0.00 in0.0 mm 0.00 in0.0 mm 0.01 in0.3 mm
12:00 PM 52.7°F11.5°C 48.9°F9.4°C 87% 13.2 mph S21.2 kmh S 13.3 mph21.4 kmh 29.94 in1013.9 mb 0.00 in0.0 mm 0.00 in0.0 mm 0.01 in0.3 mm
12:10 PM 53.2°F11.8°C 49.5°F9.7°C 87% 11.9 mph SE19.2 kmh SE 15.0 mph24.1 kmh 29.94 in1013.9 mb 0.00 in0.0 mm 0.00 in0.0 mm 0.01 in0.3 mm
12:20 PM 53.4°F11.9°C 49.6°F9.8°C 87% 11.2 mph S18.0 kmh S 13.3 mph21.4 kmh 29.94 in1013.9 mb 0.00 in0.0 mm 0.00 in0.0 mm 0.01 in0.3 mm
12:30 PM 54.0°F12.2°C 48.9°F9.4°C 83% 13.5 mph SW21.7 kmh SW 14.3 mph23.0 kmh 29.94 in1013.9 mb 0.00 in0.0 mm 0.00 in0.0 mm 0.01 in0.3 mm
12:40 PM 54.3°F12.4°C 48.9°F9.4°C 82% 14.2 mph S22.9 kmh S 16.7 mph26.9 kmh 29.94 in1013.9 mb 0.00 in0.0 mm 0.00 in0.0 mm 0.01 in0.3 mm
12:50 PM 54.7°F12.6°C 49.3°F9.6°C 82% 14.9 mph S24.0 kmh S 16.0 mph25.7 kmh 29.94 in1013.9 mb 0.00 in0.0 mm 0.00 in0.0 mm 0.01 in0.3 mm
01:00 PM 55.0°F12.8°C 49.3°F9.6°C 81% 13.7 mph S22.0 kmh S 14.3 mph23.0 kmh 29.94 in1013.9 mb 0.00 in0.0 mm 0.00 in0.0 mm 0.01 in0.3 mm
01:10 PM 55.0°F12.8°C 49.3°F9.6°C 81% 14.9 mph SW24.0 kmh SW 15.0 mph24.1 kmh 29.94 in1013.9 mb 0.00 in0.0 mm 0.00 in0.0 mm 0.01 in0.3 mm
01:20 PM 54.7°F12.6°C 49.3°F9.6°C 82% 13.9 mph SSE22.4 kmh SSE 15.0 mph24.1 kmh 29.94 in1013.9 mb 0.00 in0.0 mm 0.00 in0.0 mm 0.01 in0.3 mm
01:30 PM 54.9°F12.7°C 49.1°F9.5°C 81% 13.4 mph S21.6 kmh S 13.3 mph21.4 kmh 29.93 in1013.5 mb 0.00 in0.0 mm 0.00 in0.0 mm 0.01 in0.3 mm
01:40 PM 54.7°F12.6°C 49.0°F9.4°C 81% 13.9 mph S22.4 kmh S 15.0 mph24.1 kmh 29.94 in1013.9 mb 0.00 in0.0 mm 0.00 in0.0 mm 0.01 in0.3 mm
01:50 PM 54.5°F12.5°C 48.8°F9.3°C 81% 13.5 mph SSE21.7 kmh SSE 14.3 mph23.0 kmh 29.94 in1013.9 mb 0.00 in0.0 mm 0.00 in0.0 mm 0.01 in0.3 mm
02:00 PM 55.0°F12.8°C 48.6°F9.2°C 79% 15.9 mph SSE25.6 kmh SSE 18.5 mph29.8 kmh 29.94 in1013.9 mb 0.00 in0.0 mm 0.00 in0.0 mm 0.01 in0.3 mm
02:10 PM 55.0°F12.8°C 48.3°F9.1°C 78% 15.2 mph S24.5 kmh S 16.0 mph25.7 kmh 29.94 in1013.9 mb 0.00 in0.0 mm 0.00 in0.0 mm 0.01 in0.3 mm
02:20 PM 54.7°F12.6°C 48.0°F8.9°C 78% 15.4 mph SE24.8 kmh SE 16.7 mph26.9 kmh 29.94 in1013.9 mb 0.00 in0.0 mm 0.00 in0.0 mm 0.01 in0.3 mm
02:30 PM 54.0°F12.2°C 47.9°F8.8°C 80% 14.5 mph SE23.3 kmh SE 16.0 mph25.7 kmh 29.94 in1013.9 mb 0.00 in0.0 mm 0.00 in0.0 mm 0.01 in0.3 mm
02:40 PM 53.6°F12.0°C 47.9°F8.8°C 81% 13.4 mph S21.6 kmh S 11.8 mph19.0 kmh 29.93 in1013.5 mb 0.00 in0.0 mm 0.00 in0.0 mm 0.01 in0.3 mm
02:50 PM 53.6°F12.0°C 47.9°F8.8°C 81% 12.1 mph S19.5 kmh S 10.1 mph16.3 kmh 29.93 in1013.5 mb 0.00 in0.0 mm 0.00 in0.0 mm 0.01 in0.3 mm
03:00 PM 53.4°F11.9°C 48.4°F9.1°C 83% 15.2 mph S24.5 kmh S 17.5 mph28.2 kmh 29.93 in1013.5 mb 0.00 in0.0 mm 0.00 in0.0 mm 0.01 in0.3 mm
03:10 PM 53.2°F11.8°C 48.2°F9.0°C 83% 15.3 mph S24.6 kmh S 12.5 mph20.1 kmh 29.94 in1013.9 mb 0.00 in0.0 mm 0.00 in0.0 mm 0.01 in0.3 mm
03:20 PM 53.1°F11.7°C 48.0°F8.9°C 83% 11.3 mph S18.2 kmh S 13.3 mph21.4 kmh 29.93 in1013.5 mb 0.00 in0.0 mm 0.00 in0.0 mm 0.01 in0.3 mm
03:30 PM 52.9°F11.6°C 47.9°F8.8°C 83% 10.1 mph SSE16.3 kmh SSE 13.3 mph21.4 kmh 29.93 in1013.5 mb 0.00 in0.0 mm 0.00 in0.0 mm 0.01 in0.3 mm
03:40 PM 52.7°F11.5°C 48.0°F8.9°C 84% 8.9 mph S14.3 kmh S 10.8 mph17.4 kmh 29.94 in1013.9 mb 0.00 in0.0 mm 0.00 in0.0 mm 0.01 in0.3 mm
03:50 PM 52.3°F11.3°C 47.6°F8.7°C 84% 8.5 mph S13.7 kmh S 10.1 mph16.3 kmh 29.93 in1013.5 mb 0.00 in0.0 mm 0.00 in0.0 mm 0.01 in0.3 mm
04:00 PM 52.3°F11.3°C 47.3°F8.5°C 83% 7.5 mph SSE12.1 kmh SSE 10.8 mph17.4 kmh 29.93 in1013.5 mb 0.00 in0.0 mm 0.00 in0.0 mm 0.01 in0.3 mm
04:10 PM 52.0°F11.1°C 47.3°F8.5°C 84% 5.6 mph SE9.0 kmh SE 9.1 mph14.6 kmh 29.93 in1013.5 mb 0.00 in0.0 mm 0.00 in0.0 mm 0.01 in0.3 mm
04:20 PM 51.8°F11.0°C 47.1°F8.4°C 84% 5.8 mph SE9.3 kmh SE 10.1 mph16.3 kmh 29.93 in1013.5 mb 0.00 in0.0 mm 0.00 in0.0 mm 0.01 in0.3 mm
04:30 PM 51.8°F11.0°C 46.8°F8.2°C 83% 9.9 mph SE15.9 kmh SE 10.1 mph16.3 kmh 29.93 in1013.5 mb 0.00 in0.0 mm 0.00 in0.0 mm 0.01 in0.3 mm
04:40 PM 51.8°F11.0°C 46.8°F8.2°C 83% 9.2 mph SE14.8 kmh SE 10.1 mph16.3 kmh 29.94 in1013.9 mb 0.00 in0.0 mm 0.00 in0.0 mm 0.01 in0.3 mm
04:50 PM 51.6°F10.9°C 46.6°F8.1°C 83% 6.9 mph SSE11.1 kmh SSE 10.1 mph16.3 kmh 29.94 in1013.9 mb 0.00 in0.0 mm 0.00 in0.0 mm 0.01 in0.3 mm
05:00 PM 51.3°F10.7°C 46.6°F8.1°C 84% 4.5 mph SE7.2 kmh SE 6.6 mph10.6 kmh 29.94 in1013.9 mb 0.00 in0.0 mm 0.00 in0.0 mm 0.01 in0.3 mm
05:10 PM 50.9°F10.5°C 46.6°F8.1°C 85% 6.0 mph SW9.7 kmh SW 9.1 mph14.6 kmh 29.94 in1013.9 mb 0.00 in0.0 mm 0.00 in0.0 mm 0.01 in0.3 mm
05:20 PM 50.9°F10.5°C 46.6°F8.1°C 85% 7.1 mph SSE11.4 kmh SSE 10.1 mph16.3 kmh 29.94 in1013.9 mb 0.00 in0.0 mm 0.00 in0.0 mm 0.01 in0.3 mm
05:30 PM 50.5°F10.3°C 46.2°F7.9°C 85% 5.1 mph S8.2 kmh S 6.6 mph10.6 kmh 29.94 in1013.9 mb 0.00 in0.0 mm 0.00 in0.0 mm 0.01 in0.3 mm
05:40 PM 50.4°F10.2°C 46.3°F7.9°C 86% 5.9 mph SSE9.5 kmh SSE 7.6 mph12.2 kmh 29.94 in1013.9 mb 0.00 in0.0 mm 0.00 in0.0 mm 0.01 in0.3 mm
05:50 PM 50.2°F10.1°C 46.2°F7.9°C 86% 7.3 mph S11.7 kmh S 9.1 mph14.6 kmh 29.94 in1013.9 mb 0.00 in0.0 mm 0.00 in0.0 mm 0.01 in0.3 mm
06:00 PM 50.0°F10.0°C 46.3°F7.9°C 87% 6.6 mph SSE10.6 kmh SSE 8.4 mph13.5 kmh 29.94 in1013.9 mb 0.00 in0.0 mm 0.00 in0.0 mm 0.01 in0.3 mm
06:10 PM 49.8°F9.9°C 46.1°F7.8°C 87% 6.9 mph SE11.1 kmh SE 9.1 mph14.6 kmh 29.94 in1013.9 mb 0.00 in0.0 mm 0.00 in0.0 mm 0.01 in0.3 mm
06:20 PM 49.8°F9.9°C 46.1°F7.8°C 87% 8.9 mph SSE14.3 kmh SSE 10.1 mph16.3 kmh 29.95 in1014.2 mb 0.00 in0.0 mm 0.00 in0.0 mm 0.01 in0.3 mm
06:30 PM 49.6°F9.8°C 45.9°F7.7°C 87% 9.6 mph ESE15.4 kmh ESE 12.5 mph20.1 kmh 29.95 in1014.2 mb 0.00 in0.0 mm 0.00 in0.0 mm 0.01 in0.3 mm
06:40 PM 49.5°F9.7°C 45.8°F7.7°C 87% 7.8 mph SE12.6 kmh SE 9.1 mph14.6 kmh 29.95 in1014.2 mb 0.00 in0.0 mm 0.00 in0.0 mm 0.01 in0.3 mm
06:50 PM 49.5°F9.7°C 45.4°F7.4°C 86% 10.4 mph SSE16.7 kmh SSE 10.8 mph17.4 kmh 29.95 in1014.2 mb 0.00 in0.0 mm 0.00 in0.0 mm 0.01 in0.3 mm
07:00 PM 49.5°F9.7°C 45.1°F7.3°C 85% 10.4 mph SE16.7 kmh SE 15.0 mph24.1 kmh 29.95 in1014.2 mb 0.00 in0.0 mm 0.00 in0.0 mm 0.01 in0.3 mm
07:10 PM 49.3°F9.6°C 45.3°F7.4°C 86% 10.0 mph SE16.1 kmh SE 10.1 mph16.3 kmh 29.95 in1014.2 mb 0.00 in0.0 mm 0.00 in0.0 mm 0.01 in0.3 mm
07:20 PM 48.9°F9.4°C 44.9°F7.2°C 86% 10.0 mph SSE16.1 kmh SSE 13.3 mph21.4 kmh 29.95 in1014.2 mb 0.00 in0.0 mm 0.00 in0.0 mm 0.01 in0.3 mm
07:30 PM 48.7°F9.3°C 44.7°F7.1°C 86% 11.1 mph SE17.9 kmh SE 13.3 mph21.4 kmh 29.95 in1014.2 mb 0.00 in0.0 mm 0.00 in0.0 mm 0.01 in0.3 mm
07:40 PM 48.6°F9.2°C 44.9°F7.2°C 87% 9.4 mph SSE15.1 kmh SSE 14.3 mph23.0 kmh 29.95 in1014.2 mb 0.00 in0.0 mm 0.00 in0.0 mm 0.01 in0.3 mm
07:50 PM 48.6°F9.2°C 44.9°F7.2°C 87% 10.3 mph S16.6 kmh S 14.3 mph23.0 kmh 29.95 in1014.2 mb 0.00 in0.0 mm 0.00 in0.0 mm 0.01 in0.3 mm
08:00 PM 48.4°F9.1°C 44.7°F7.1°C 87% 10.0 mph S16.1 kmh S 10.8 mph17.4 kmh 29.95 in1014.2 mb 0.00 in0.0 mm 0.00 in0.0 mm 0.01 in0.3 mm
08:10 PM 48.2°F9.0°C 44.5°F6.9°C 87% 9.7 mph SSE15.6 kmh SSE 15.0 mph24.1 kmh 29.95 in1014.2 mb 0.00 in0.0 mm 0.00 in0.0 mm 0.01 in0.3 mm
08:20 PM 48.2°F9.0°C 44.5°F6.9°C 87% 9.0 mph SSE14.5 kmh SSE 16.0 mph25.7 kmh 29.94 in1013.9 mb 0.00 in0.0 mm 0.00 in0.0 mm 0.01 in0.3 mm
08:30 PM 48.2°F9.0°C 44.5°F6.9°C 87% 9.7 mph S15.6 kmh S 12.5 mph20.1 kmh 29.95 in1014.2 mb 0.00 in0.0 mm 0.00 in0.0 mm 0.01 in0.3 mm
08:40 PM 48.2°F9.0°C 44.2°F6.8°C 86% 9.1 mph S14.6 kmh S 10.1 mph16.3 kmh 29.94 in1013.9 mb 0.00 in0.0 mm 0.00 in0.0 mm 0.01 in0.3 mm
08:50 PM 48.2°F9.0°C 44.2°F6.8°C 86% 6.4 mph SE10.3 kmh SE 10.8 mph17.4 kmh 29.95 in1014.2 mb 0.00 in0.0 mm 0.00 in0.0 mm 0.01 in0.3 mm
09:00 PM 48.0°F8.9°C 44.0°F6.7°C 86% 6.2 mph SE10.0 kmh SE 8.4 mph13.5 kmh 29.94 in1013.9 mb 0.00 in0.0 mm 0.00 in0.0 mm 0.01 in0.3 mm
09:10 PM 47.8°F8.8°C 43.9°F6.6°C 86% 7.6 mph SE12.2 kmh SE 8.4 mph13.5 kmh 29.94 in1013.9 mb 0.00 in0.0 mm 0.00 in0.0 mm 0.01 in0.3 mm
09:20 PM 47.5°F8.6°C 43.5°F6.4°C 86% 5.6 mph SSW9.0 kmh SSW 9.1 mph14.6 kmh 29.94 in1013.9 mb 0.00 in0.0 mm 0.00 in0.0 mm 0.01 in0.3 mm
09:30 PM 47.5°F8.6°C 43.5°F6.4°C 86% 6.5 mph S10.5 kmh S 9.1 mph14.6 kmh 29.94 in1013.9 mb 0.00 in0.0 mm 0.00 in0.0 mm 0.01 in0.3 mm
09:40 PM 47.3°F8.5°C 43.3°F6.3°C 86% 7.1 mph SE11.4 kmh SE 12.5 mph20.1 kmh 29.94 in1013.9 mb 0.00 in0.0 mm 0.00 in0.0 mm 0.01 in0.3 mm
09:50 PM 47.3°F8.5°C 43.6°F6.4°C 87% 8.4 mph S13.5 kmh S 10.1 mph16.3 kmh 29.94 in1013.9 mb 0.00 in0.0 mm 0.00 in0.0 mm 0.01 in0.3 mm
10:00 PM 47.3°F8.5°C 43.9°F6.6°C 88% 8.1 mph SE13.0 kmh SE 11.8 mph19.0 kmh 29.94 in1013.9 mb 0.00 in0.0 mm 0.00 in0.0 mm 0.01 in0.3 mm
10:10 PM 47.1°F8.4°C 43.7°F6.5°C 88% 10.9 mph SE17.5 kmh SE 12.5 mph20.1 kmh 29.94 in1013.9 mb 0.00 in0.0 mm 0.00 in0.0 mm 0.01 in0.3 mm
10:20 PM 46.9°F8.3°C 43.9°F6.6°C 89% 9.1 mph SSE14.6 kmh SSE 12.5 mph20.1 kmh 29.93 in1013.5 mb 0.00 in0.0 mm 0.00 in0.0 mm 0.01 in0.3 mm
10:30 PM 46.9°F8.3°C 44.2°F6.8°C 90% 8.8 mph S14.2 kmh S 11.8 mph19.0 kmh 29.93 in1013.5 mb 0.00 in0.0 mm 0.00 in0.0 mm 0.01 in0.3 mm
10:40 PM 46.9°F8.3°C 44.4°F6.9°C 91% 8.9 mph SE14.3 kmh SE 12.5 mph20.1 kmh 29.92 in1013.2 mb 0.00 in0.0 mm 0.00 in0.0 mm 0.01 in0.3 mm
10:50 PM 46.9°F8.3°C 44.4°F6.9°C 91% 9.4 mph S15.1 kmh S 12.5 mph20.1 kmh 29.92 in1013.2 mb 0.00 in0.0 mm 0.00 in0.0 mm 0.01 in0.3 mm
11:00 PM 46.9°F8.3°C 44.7°F7.1°C 92% 9.4 mph SE15.1 kmh SE 12.5 mph20.1 kmh 29.91 in1012.9 mb 0.00 in0.0 mm 0.00 in0.0 mm 0.01 in0.3 mm
11:10 PM 46.9°F8.3°C 44.7°F7.1°C 92% 9.5 mph SW15.3 kmh SW 8.4 mph13.5 kmh 29.92 in1013.2 mb 0.00 in0.0 mm 0.00 in0.0 mm 0.01 in0.3 mm
11:20 PM 46.9°F8.3°C 44.7°F7.1°C 92% 9.6 mph WSW15.4 kmh WSW 11.8 mph19.0 kmh 29.91 in1012.9 mb 0.00 in0.0 mm 0.00 in0.0 mm 0.01 in0.3 mm
11:30 PM 46.8°F8.2°C 44.6°F7.0°C 92% 7.9 mph S12.7 kmh S 10.8 mph17.4 kmh 29.91 in1012.9 mb 0.00 in0.0 mm 0.00 in0.0 mm 0.01 in0.3 mm
11:40 PM 46.8°F8.2°C 44.8°F7.1°C 93% 8.0 mph S12.9 kmh S 10.1 mph16.3 kmh 29.90 in1012.5 mb 0.00 in0.0 mm 0.00 in0.0 mm 0.01 in0.3 mm
11:50 PM 46.8°F8.2°C 44.8°F7.1°C 93% 7.8 mph SE12.6 kmh SE 9.1 mph14.6 kmh 29.90 in1012.5 mb 0.00 in0.0 mm 0.00 in0.0 mm 0.01 in0.3 mm